createdAt,value
2023-04-16T00:01:59.957Z,36.63
2023-04-16T00:04:26.880Z,33.37
2023-04-16T00:06:54.499Z,35.83
2023-04-16T00:09:21.396Z,34.83
2023-04-16T00:11:48.319Z,36.00
2023-04-16T00:14:15.090Z,34.03
2023-04-16T00:16:41.865Z,36.17
2023-04-16T00:19:08.894Z,34.40
2023-04-16T00:21:36.372Z,35.30
2023-04-16T00:24:03.300Z,33.67
2023-04-16T00:26:30.120Z,33.43
2023-04-16T00:28:57.169Z,34.53
2023-04-16T00:31:31.904Z,34.40
2023-04-16T00:33:59.443Z,34.30
2023-04-16T00:36:27.784Z,34.07
2023-04-16T00:38:56.110Z,34.40
2023-04-16T00:41:23.279Z,35.77
2023-04-16T00:43:50.850Z,34.53
2023-04-16T00:46:20.444Z,35.80
2023-04-16T00:48:47.837Z,35.93
2023-04-16T00:51:15.362Z,36.23
2023-04-16T00:53:44.457Z,34.93
2023-04-16T00:56:12.701Z,37.00
2023-04-16T00:58:40.516Z,35.33
2023-04-16T01:01:07.513Z,36.27
2023-04-16T01:03:39.172Z,36.23
2023-04-16T01:06:07.217Z,35.73
2023-04-16T01:08:34.461Z,36.90
2023-04-16T01:11:02.026Z,37.60
2023-04-16T01:13:29.014Z,36.20
2023-04-16T01:15:56.100Z,36.87
2023-04-16T01:18:24.046Z,37.03
2023-04-16T01:20:51.546Z,37.40
2023-04-16T01:23:18.922Z,36.30
2023-04-16T01:25:46.654Z,35.67
2023-04-16T01:28:13.544Z,36.07
2023-04-16T01:30:40.475Z,35.60
2023-04-16T01:33:30.564Z,35.70
2023-04-16T01:35:57.449Z,36.70
2023-04-16T01:38:24.314Z,35.63
2023-04-16T01:40:55.446Z,35.50
2023-04-16T01:43:22.359Z,36.13
2023-04-16T01:45:49.281Z,35.30
2023-04-16T01:48:16.582Z,37.40
2023-04-16T01:50:43.520Z,37.10
2023-04-16T01:53:10.640Z,37.50
2023-04-16T01:55:37.447Z,36.53
2023-04-16T01:58:04.478Z,37.80
2023-04-16T02:00:34.235Z,39.83
2023-04-16T02:03:01.349Z,38.70
2023-04-16T02:05:28.751Z,38.00
2023-04-16T02:07:55.664Z,38.60
2023-04-16T02:10:22.514Z,39.20
2023-04-16T02:12:49.836Z,40.67
2023-04-16T02:15:17.092Z,39.23
2023-04-16T02:17:46.353Z,43.10
2023-04-16T02:20:13.515Z,40.03
2023-04-16T02:22:50.622Z,40.63
2023-04-16T02:25:20.621Z,39.37
2023-04-16T02:27:47.772Z,43.23
2023-04-16T02:30:24.829Z,40.80
2023-04-16T02:32:52.893Z,41.50
2023-04-16T02:35:20.931Z,40.23
2023-04-16T02:37:48.458Z,39.80
2023-04-16T02:40:15.497Z,40.63
2023-04-16T02:42:42.256Z,41.70
2023-04-16T02:45:09.947Z,42.07
2023-04-16T02:47:36.858Z,40.83
2023-04-16T02:50:04.150Z,41.13
2023-04-16T02:52:32.254Z,42.53
2023-04-16T02:54:59.311Z,45.33
2023-04-16T02:57:26.198Z,40.30
2023-04-16T02:59:53.108Z,41.57
2023-04-16T03:02:19.988Z,41.73
2023-04-16T03:04:46.870Z,41.27
2023-04-16T03:07:13.773Z,44.00
2023-04-16T03:09:40.862Z,42.67
2023-04-16T03:12:07.670Z,41.50
2023-04-16T03:14:34.528Z,44.37
2023-04-16T03:17:01.372Z,43.80
2023-04-16T03:19:28.332Z,42.50
2023-04-16T03:21:55.204Z,45.80
2023-04-16T03:24:22.248Z,42.30
2023-04-16T03:26:49.279Z,44.50
2023-04-16T03:29:16.343Z,44.83
2023-04-16T03:31:43.566Z,43.17
2023-04-16T03:34:10.788Z,43.73
2023-04-16T03:36:39.352Z,43.77
2023-04-16T03:39:06.156Z,45.27
2023-04-16T03:41:33.403Z,45.73
2023-04-16T03:44:01.037Z,43.60
2023-04-16T03:46:27.844Z,42.67
2023-04-16T03:48:54.800Z,44.37
2023-04-16T03:51:21.977Z,45.00
2023-04-16T03:53:48.833Z,46.53
2023-04-16T03:56:15.615Z,45.37
2023-04-16T03:58:42.649Z,43.50
2023-04-16T04:01:09.545Z,44.27
2023-04-16T04:03:38.016Z,44.27
2023-04-16T04:06:09.058Z,44.77
2023-04-16T04:08:36.087Z,44.27
2023-04-16T04:11:04.805Z,44.80
2023-04-16T04:13:33.166Z,45.90
2023-04-16T04:16:00.278Z,46.73
2023-04-16T04:18:28.230Z,46.23
2023-04-16T04:20:55.104Z,46.10
2023-04-16T04:23:26.005Z,44.10
2023-04-16T04:25:52.883Z,46.13
2023-04-16T04:28:19.799Z,47.30
2023-04-16T04:30:46.640Z,47.60
2023-04-16T04:33:14.023Z,46.27
2023-04-16T04:35:42.016Z,45.97
2023-04-16T04:38:09.117Z,47.47
2023-04-16T04:40:36.149Z,48.03
2023-04-16T04:43:04.057Z,47.93
2023-04-16T04:45:32.096Z,47.30
2023-04-16T04:47:59.170Z,47.30
2023-04-16T04:50:26.318Z,45.97
2023-04-16T04:52:53.174Z,47.30
2023-04-16T04:55:20.042Z,47.20
2023-04-16T04:57:47.087Z,46.93
2023-04-16T05:00:14.100Z,45.13
2023-04-16T05:02:50.249Z,47.13
2023-04-16T05:05:17.236Z,47.97
2023-04-16T05:07:44.584Z,45.80
2023-04-16T05:10:11.412Z,49.90
2023-04-16T05:12:38.283Z,47.53
2023-04-16T05:15:05.627Z,46.97
2023-04-16T05:17:32.436Z,49.20
2023-04-16T05:20:00.285Z,46.47
2023-04-16T05:22:27.086Z,47.53
2023-04-16T05:24:53.841Z,45.83
2023-04-16T05:27:20.595Z,48.03
2023-04-16T05:29:47.349Z,49.13
2023-04-16T05:32:14.356Z,48.07
2023-04-16T05:34:41.197Z,48.10
2023-04-16T05:37:07.957Z,48.40
2023-04-16T05:39:34.699Z,49.37
2023-04-16T05:42:01.556Z,49.53
2023-04-16T05:44:28.359Z,48.50
2023-04-16T05:46:55.181Z,48.47
2023-04-16T05:49:24.656Z,46.90
2023-04-16T05:51:51.530Z,49.63
2023-04-16T05:54:18.338Z,48.30
2023-04-16T05:56:45.132Z,49.77
2023-04-16T05:59:12.117Z,48.67
2023-04-16T06:01:39.088Z,49.00
2023-04-16T06:04:05.974Z,47.57
2023-04-16T06:06:32.944Z,48.93
2023-04-16T06:08:59.730Z,48.10
2023-04-16T06:11:27.560Z,48.23
2023-04-16T06:13:54.428Z,48.93
2023-04-16T06:16:21.235Z,47.70
2023-04-16T06:18:48.191Z,49.90
2023-04-16T06:21:15.697Z,48.20
2023-04-16T06:23:42.491Z,48.97
2023-04-16T06:26:09.300Z,50.20
2023-04-16T06:28:36.121Z,50.20
2023-04-16T06:31:03.147Z,47.87
2023-04-16T06:33:30.062Z,48.60
2023-04-16T06:35:56.883Z,48.43
2023-04-16T06:38:23.705Z,48.90
2023-04-16T06:40:50.629Z,50.30
2023-04-16T06:43:17.963Z,51.03
2023-04-16T06:45:45.339Z,48.33
2023-04-16T06:48:12.165Z,49.73
2023-04-16T06:50:39.020Z,49.70
2023-04-16T06:53:05.906Z,48.77
2023-04-16T06:55:32.863Z,52.90
2023-04-16T06:57:59.900Z,50.97
2023-04-16T07:00:26.758Z,49.23
2023-04-16T07:02:55.147Z,49.30
2023-04-16T07:05:23.186Z,49.73
2023-04-16T07:07:50.089Z,50.30
2023-04-16T07:10:17.149Z,50.83
2023-04-16T07:12:44.054Z,50.10
2023-04-16T07:15:11.205Z,49.93
2023-04-16T07:17:38.164Z,52.07
2023-04-16T07:20:06.093Z,49.93
2023-04-16T07:22:32.842Z,53.10
2023-04-16T07:24:59.616Z,52.13
2023-04-16T07:27:26.462Z,53.10
2023-04-16T07:29:54.754Z,50.53
2023-04-16T07:32:22.723Z,49.87
2023-04-16T07:34:49.532Z,50.50
2023-04-16T07:37:16.374Z,49.70
2023-04-16T07:39:43.199Z,48.67
2023-04-16T07:42:10.111Z,48.83
2023-04-16T07:44:37.083Z,46.53
2023-04-16T07:47:05.561Z,46.73
2023-04-16T07:49:32.660Z,48.63
2023-04-16T07:51:59.526Z,46.83
2023-04-16T07:54:28.856Z,46.43
2023-04-16T07:56:55.930Z,45.93
2023-04-16T07:59:24.254Z,49.47
2023-04-16T08:01:53.803Z,47.73
2023-04-16T08:04:25.069Z,45.83
2023-04-16T08:06:52.656Z,45.43
2023-04-16T08:09:21.698Z,45.53
2023-04-16T08:11:49.908Z,45.40
2023-04-16T08:14:17.511Z,44.97
2023-04-16T08:16:44.587Z,43.60
2023-04-16T08:19:11.656Z,42.73
2023-04-16T08:21:38.981Z,42.37
2023-04-16T08:24:06.044Z,40.80
2023-04-16T08:26:32.822Z,41.60
2023-04-16T08:28:59.636Z,41.40
2023-04-16T08:31:26.688Z,41.03
2023-04-16T08:33:53.617Z,42.33
2023-04-16T08:36:20.814Z,39.80
2023-04-16T08:38:47.688Z,40.83
2023-04-16T08:41:15.133Z,38.80
2023-04-16T08:43:45.180Z,40.00
2023-04-16T08:46:12.835Z,40.37
2023-04-16T08:48:43.565Z,38.90
2023-04-16T08:51:11.962Z,41.17
2023-04-16T08:54:00.242Z,38.70
2023-04-16T08:56:27.870Z,39.17
2023-04-16T08:58:55.284Z,37.63
2023-04-16T09:01:22.749Z,39.30
2023-04-16T09:03:49.966Z,36.80
2023-04-16T09:06:18.301Z,38.17
2023-04-16T09:08:46.296Z,37.90
2023-04-16T09:11:19.658Z,37.13
2023-04-16T09:13:47.656Z,36.83
2023-04-16T09:16:15.477Z,37.67
2023-04-16T09:18:42.458Z,36.50
2023-04-16T09:21:13.488Z,38.33
2023-04-16T09:23:41.164Z,37.53
2023-04-16T09:26:08.030Z,37.63
2023-04-16T09:28:45.897Z,38.13
2023-04-16T09:31:17.936Z,38.77
2023-04-16T09:34:04.950Z,38.67
2023-04-16T09:36:32.656Z,38.17
2023-04-16T09:39:00.304Z,38.10
2023-04-16T09:41:31.896Z,40.67
2023-04-16T09:44:01.778Z,37.60
2023-04-16T09:46:36.271Z,38.00
2023-04-16T09:49:15.877Z,39.63
2023-04-16T09:51:48.315Z,39.53
2023-04-16T09:54:16.168Z,39.77
2023-04-16T09:56:44.539Z,40.77
2023-04-16T09:59:18.630Z,42.00
2023-04-16T10:01:47.170Z,40.40
2023-04-16T10:04:14.239Z,39.60
2023-04-16T10:06:41.117Z,39.57
2023-04-16T10:09:12.195Z,40.77
2023-04-16T10:11:39.902Z,41.93
2023-04-16T10:14:06.940Z,41.63
2023-04-16T10:16:34.604Z,41.07
2023-04-16T10:19:02.193Z,40.67
2023-04-16T10:21:34.128Z,42.53
2023-04-16T10:24:01.746Z,40.63
2023-04-16T10:26:30.060Z,43.23
2023-04-16T10:28:58.553Z,42.70
2023-04-16T10:31:27.213Z,41.37
2023-04-16T10:33:54.537Z,44.77
2023-04-16T10:36:26.373Z,44.50
2023-04-16T10:38:58.445Z,45.90
2023-04-16T10:41:26.838Z,46.13
2023-04-16T10:44:03.250Z,44.90
2023-04-16T10:46:40.590Z,44.23
2023-04-16T10:49:23.711Z,41.13
2023-04-16T10:52:02.385Z,44.23
2023-04-16T10:54:31.037Z,41.47
2023-04-16T10:57:00.791Z,40.93
2023-04-16T10:59:34.932Z,42.23
2023-04-16T11:02:11.882Z,44.20
2023-04-16T11:04:42.398Z,44.57
2023-04-16T11:07:16.346Z,45.10
2023-04-16T11:10:05.348Z,45.03
2023-04-16T11:12:39.888Z,44.17
2023-04-16T11:15:19.426Z,45.40
2023-04-16T11:17:48.400Z,46.20
2023-04-16T11:20:19.097Z,46.07
2023-04-16T11:22:54.920Z,48.73
2023-04-16T11:25:24.174Z,44.47
2023-04-16T11:27:52.125Z,45.67
2023-04-16T11:30:28.128Z,45.20
2023-04-16T11:32:55.325Z,43.83
2023-04-16T11:35:22.302Z,44.50
2023-04-16T11:37:49.149Z,43.77
2023-04-16T11:40:15.988Z,42.30
2023-04-16T11:42:43.496Z,41.77
2023-04-16T11:45:12.192Z,42.57
2023-04-16T11:47:52.390Z,43.53
2023-04-16T11:50:23.163Z,41.83
2023-04-16T11:52:51.837Z,42.33
2023-04-16T11:55:19.541Z,42.87
2023-04-16T11:57:46.395Z,44.23
2023-04-16T12:00:14.314Z,43.17
2023-04-16T12:02:52.276Z,43.83
2023-04-16T12:05:35.978Z,42.60
2023-04-16T12:08:05.500Z,45.23
2023-04-16T12:10:37.404Z,44.83
2023-04-16T12:13:12.521Z,41.10
2023-04-16T12:15:53.156Z,41.13
2023-04-16T12:18:22.971Z,39.63
2023-04-16T12:20:51.277Z,39.70
2023-04-16T12:23:23.790Z,41.77
2023-04-16T12:25:52.000Z,41.20
2023-04-16T12:28:32.618Z,39.03
2023-04-16T12:30:59.834Z,40.93
2023-04-16T12:33:26.741Z,39.47
2023-04-16T12:35:54.056Z,38.30
2023-04-16T12:38:22.835Z,38.27
2023-04-16T12:40:51.029Z,40.60
2023-04-16T12:43:18.211Z,41.73
2023-04-16T12:45:45.277Z,39.87
2023-04-16T12:48:12.057Z,38.53
2023-04-16T12:50:39.731Z,37.40
2023-04-16T12:53:06.661Z,37.73
2023-04-16T12:55:33.474Z,37.20
2023-04-16T12:58:00.299Z,38.10
2023-04-16T13:00:27.202Z,38.67
2023-04-16T13:02:54.184Z,37.90
2023-04-16T13:05:21.432Z,38.97
2023-04-16T13:07:48.308Z,39.97
2023-04-16T13:10:15.372Z,40.33
2023-04-16T13:12:42.124Z,39.33
2023-04-16T13:15:09.796Z,37.40
2023-04-16T13:17:36.691Z,38.30
2023-04-16T13:20:03.634Z,38.23
2023-04-16T13:22:30.722Z,38.57
2023-04-16T13:24:57.597Z,38.37
2023-04-16T13:27:24.457Z,38.63
2023-04-16T13:29:51.425Z,38.80
2023-04-16T13:32:18.928Z,38.40
2023-04-16T13:34:46.030Z,39.30
2023-04-16T13:37:13.115Z,40.17
2023-04-16T13:39:40.115Z,40.33
2023-04-16T13:42:07.024Z,40.63
2023-04-16T13:44:33.960Z,40.70
2023-04-16T13:47:01.008Z,39.37
2023-04-16T13:49:27.852Z,38.90
2023-04-16T13:51:54.693Z,38.50
2023-04-16T13:54:21.493Z,39.53
2023-04-16T13:56:50.540Z,40.30
2023-04-16T13:59:17.851Z,39.60
2023-04-16T14:01:44.708Z,39.50
2023-04-16T14:04:11.921Z,40.10
2023-04-16T14:06:38.795Z,37.67
2023-04-16T14:09:05.951Z,37.13
2023-04-16T14:11:32.821Z,38.60
2023-04-16T14:13:59.701Z,38.47
2023-04-16T14:16:27.401Z,37.47
2023-04-16T14:18:54.362Z,37.47
2023-04-16T14:21:21.250Z,37.77
2023-04-16T14:23:48.151Z,38.83
2023-04-16T14:26:15.425Z,36.83
2023-04-16T14:28:42.372Z,37.33
2023-04-16T14:31:09.359Z,38.93
2023-04-16T14:33:36.844Z,38.53
2023-04-16T14:36:04.087Z,37.47
2023-04-16T14:38:31.488Z,35.37
2023-04-16T14:41:00.181Z,35.93
2023-04-16T14:43:27.249Z,35.10
2023-04-16T14:45:54.290Z,35.03
2023-04-16T14:48:22.005Z,36.10
2023-04-16T14:50:48.962Z,35.87
2023-04-16T14:53:15.896Z,38.10
2023-04-16T14:55:42.753Z,37.00
2023-04-16T14:58:10.807Z,36.77
2023-04-16T15:00:37.950Z,37.90
2023-04-16T15:03:05.853Z,36.70
2023-04-16T15:05:33.025Z,37.17
2023-04-16T15:08:00.654Z,36.40
2023-04-16T15:10:27.749Z,34.73
2023-04-16T15:12:54.797Z,34.60
2023-04-16T15:15:21.799Z,35.07
2023-04-16T15:17:50.446Z,36.90
2023-04-16T15:20:17.635Z,38.43
2023-04-16T15:22:44.615Z,34.80
2023-04-16T15:25:11.621Z,35.03
2023-04-16T15:27:38.632Z,34.90
2023-04-16T15:30:06.586Z,39.53
2023-04-16T15:32:33.395Z,37.03
2023-04-16T15:35:01.908Z,38.70
2023-04-16T15:37:28.704Z,39.07
2023-04-16T15:39:55.460Z,37.87
2023-04-16T15:42:23.271Z,38.53
2023-04-16T15:44:50.044Z,37.03
2023-04-16T15:47:16.803Z,40.33
2023-04-16T15:49:43.682Z,38.47
2023-04-16T15:52:12.019Z,38.67
2023-04-16T15:54:38.901Z,37.83
2023-04-16T15:57:05.804Z,36.80
2023-04-16T15:59:32.903Z,38.77
2023-04-16T16:01:59.962Z,40.13
2023-04-16T16:04:28.187Z,40.97
2023-04-16T16:06:55.618Z,40.90
2023-04-16T16:09:26.400Z,39.00
2023-04-16T16:11:54.362Z,38.83
2023-04-16T16:14:22.507Z,38.80
2023-04-16T16:16:49.442Z,40.30
2023-04-16T16:19:18.889Z,39.33
2023-04-16T16:21:45.777Z,41.97
2023-04-16T16:24:12.734Z,38.40
2023-04-16T16:26:39.614Z,38.33
2023-04-16T16:29:07.187Z,38.57
2023-04-16T16:31:34.096Z,39.20
2023-04-16T16:34:01.233Z,40.37
2023-04-16T16:36:29.616Z,39.73
2023-04-16T16:38:56.975Z,40.27
2023-04-16T16:41:23.799Z,39.83
2023-04-16T16:43:51.004Z,39.80
2023-04-16T16:46:17.862Z,40.43
2023-04-16T16:48:44.674Z,39.33
2023-04-16T16:51:11.553Z,40.20
2023-04-16T16:53:38.395Z,39.20
2023-04-16T16:56:05.805Z,38.67
2023-04-16T16:58:32.849Z,38.87
2023-04-16T17:00:59.911Z,40.73
2023-04-16T17:03:26.977Z,43.67
2023-04-16T17:05:54.047Z,40.33
2023-04-16T17:08:20.879Z,40.23
2023-04-16T17:10:47.841Z,39.90
2023-04-16T17:13:19.546Z,42.87
2023-04-16T17:15:47.096Z,41.33
2023-04-16T17:18:14.114Z,43.23
2023-04-16T17:20:40.985Z,42.60
2023-04-16T17:23:08.390Z,45.37
2023-04-16T17:25:35.183Z,44.83
2023-04-16T17:28:02.724Z,43.33
2023-04-16T17:30:31.525Z,41.67
2023-04-16T17:32:58.456Z,40.87
2023-04-16T17:35:25.431Z,41.03
2023-04-16T17:37:52.264Z,40.67
2023-04-16T17:40:19.235Z,41.60
2023-04-16T17:42:46.154Z,42.50
2023-04-16T17:45:13.410Z,42.67
2023-04-16T17:47:40.666Z,41.40
2023-04-16T17:50:08.777Z,41.67
2023-04-16T17:52:37.379Z,41.97
2023-04-16T17:55:07.731Z,43.30
2023-04-16T17:57:34.609Z,44.23
2023-04-16T18:00:01.466Z,41.70
2023-04-16T18:02:40.818Z,40.87
2023-04-16T18:05:08.781Z,43.70
2023-04-16T18:07:36.381Z,42.53
2023-04-16T18:10:03.373Z,44.73
2023-04-16T18:12:30.409Z,43.77
2023-04-16T18:14:57.581Z,42.70
2023-04-16T18:17:24.458Z,42.67
2023-04-16T18:19:51.447Z,43.20
2023-04-16T18:22:18.289Z,42.77
2023-04-16T18:24:45.090Z,44.20
2023-04-16T18:29:40.192Z,43.70
2023-04-16T18:32:09.819Z,47.07
2023-04-16T18:34:38.668Z,45.97
2023-04-16T18:37:05.503Z,44.27
2023-04-16T18:39:36.658Z,45.47
2023-04-16T18:42:03.905Z,45.60
2023-04-16T18:44:30.847Z,46.03
2023-04-16T18:46:57.780Z,48.33
2023-04-16T18:49:25.278Z,47.23
2023-04-16T18:55:46.422Z,46.37
2023-04-16T18:58:13.209Z,48.57
2023-04-16T19:00:40.141Z,47.53
2023-04-16T19:03:07.535Z,45.27
2023-04-16T19:05:34.580Z,48.50
2023-04-16T19:08:01.435Z,48.43
2023-04-16T19:10:28.417Z,48.27
2023-04-16T19:12:58.628Z,49.70
2023-04-16T19:15:25.496Z,48.33
2023-04-16T19:17:52.270Z,49.37
2023-04-16T19:20:20.131Z,48.27
2023-04-16T19:22:46.993Z,48.93
2023-04-16T19:25:13.893Z,49.17
2023-04-16T19:27:41.010Z,49.17
2023-04-16T19:30:08.625Z,47.77
2023-04-16T19:32:35.625Z,48.93
2023-04-16T19:35:03.730Z,47.47
2023-04-16T19:37:30.504Z,49.03
2023-04-16T19:39:57.361Z,47.73
2023-04-16T19:42:24.221Z,49.60
2023-04-16T19:44:51.103Z,49.80
2023-04-16T19:47:17.936Z,48.67
2023-04-16T19:49:45.085Z,48.07
2023-04-16T19:52:11.855Z,47.13
2023-04-16T19:54:38.684Z,47.67
2023-04-16T19:57:06.008Z,48.23
2023-04-16T19:59:33.113Z,50.00
2023-04-16T20:02:00.117Z,46.00
2023-04-16T20:04:27.186Z,48.73
2023-04-16T20:06:54.306Z,49.57
2023-04-16T20:09:21.310Z,48.30
2023-04-16T20:11:48.144Z,51.87
2023-04-16T20:14:15.008Z,50.07
2023-04-16T20:16:43.597Z,50.70
2023-04-16T20:19:10.851Z,50.87
2023-04-16T20:21:38.175Z,51.03
2023-04-16T20:24:05.187Z,48.73
2023-04-16T20:26:34.030Z,48.03
2023-04-16T20:29:01.356Z,50.90
2023-04-16T20:31:28.267Z,51.33
2023-04-16T20:33:55.394Z,49.03
2023-04-16T20:36:22.189Z,51.00
2023-04-16T20:38:51.107Z,49.57
2023-04-16T20:41:22.379Z,51.60
2023-04-16T20:43:52.863Z,51.07
2023-04-16T20:46:24.158Z,50.70
2023-04-16T20:48:51.822Z,50.80
2023-04-16T20:51:18.683Z,52.80
2023-04-16T20:53:45.595Z,51.80
2023-04-16T20:56:14.944Z,51.90
2023-04-16T20:58:42.670Z,51.13
2023-04-16T21:01:09.646Z,51.43
2023-04-16T21:03:37.077Z,49.97
2023-04-16T21:06:04.343Z,50.83
2023-04-16T21:08:31.262Z,49.57
2023-04-16T21:10:58.112Z,52.57
2023-04-16T21:13:25.072Z,51.23
2023-04-16T21:15:52.112Z,52.87
2023-04-16T21:18:18.941Z,51.57
2023-04-16T21:20:45.847Z,51.90
2023-04-16T21:23:12.655Z,51.53
2023-04-16T21:25:39.495Z,52.03
2023-04-16T21:28:06.352Z,54.07
2023-04-16T21:30:33.249Z,54.70
2023-04-16T21:33:00.080Z,53.70
2023-04-16T21:35:26.967Z,50.90
2023-04-16T21:37:53.793Z,52.80
2023-04-16T21:40:20.873Z,53.80
2023-04-16T21:42:47.704Z,51.27
2023-04-16T21:45:14.611Z,49.40
2023-04-16T21:47:41.541Z,50.50
2023-04-16T21:50:08.858Z,49.40
2023-04-16T21:52:40.419Z,49.93
2023-04-16T21:55:09.425Z,48.43
2023-04-16T21:57:36.477Z,51.20
2023-04-16T22:00:09.252Z,47.63
2023-04-16T22:02:36.317Z,47.77
2023-04-16T22:05:03.397Z,47.70
2023-04-16T22:07:30.584Z,46.83
2023-04-16T22:09:57.398Z,47.87
2023-04-16T22:12:24.278Z,49.47
2023-04-16T22:17:23.736Z,49.53
2023-04-16T22:19:50.791Z,48.63
2023-04-16T22:22:17.604Z,50.53
2023-04-16T22:24:44.711Z,49.63
2023-04-16T22:27:11.573Z,49.60
2023-04-16T22:29:38.318Z,49.60
2023-04-16T22:32:05.481Z,51.60
2023-04-16T22:34:32.326Z,52.57
2023-04-16T22:37:01.367Z,52.47
2023-04-16T22:39:29.138Z,49.73
2023-04-16T22:41:56.097Z,49.03
2023-04-16T22:44:22.891Z,51.10
2023-04-16T22:46:49.651Z,50.47
2023-04-16T22:49:16.530Z,51.33
2023-04-16T22:51:43.413Z,52.63
2023-04-16T22:54:13.277Z,50.73
2023-04-16T22:56:41.237Z,50.07
2023-04-16T22:59:08.009Z,51.83
2023-04-16T23:01:35.355Z,51.17
2023-04-16T23:04:02.338Z,49.07
2023-04-16T23:06:29.144Z,52.10
2023-04-16T23:08:55.927Z,51.47
2023-04-16T23:11:22.938Z,51.57
2023-04-16T23:13:49.700Z,51.17
2023-04-16T23:16:16.508Z,52.27
2023-04-16T23:18:43.320Z,52.93
2023-04-16T23:21:10.119Z,52.10
2023-04-16T23:23:37.002Z,50.90
2023-04-16T23:26:04.050Z,52.17
2023-04-16T23:28:30.860Z,51.87
2023-04-16T23:30:57.641Z,55.47
2023-04-16T23:33:24.457Z,53.40
2023-04-16T23:35:51.335Z,53.87
2023-04-16T23:38:18.306Z,52.23
2023-04-16T23:40:45.326Z,52.33
2023-04-16T23:43:12.148Z,54.20
2023-04-16T23:45:39.048Z,54.43
2023-04-16T23:48:06.253Z,56.10
2023-04-16T23:50:33.106Z,55.77
2023-04-16T23:52:59.909Z,53.83
2023-04-16T23:55:26.684Z,54.50
2023-04-16T23:57:53.452Z,57.73
